Terminal Aerodrome Forecast
Issued by NWS

Home | Current Version | Previous Version | Text Only | Print | Product List | Glossary Off
Versions: 1 2 3 4 5 6 7 8 9 10 11 12 13 14 15 16 17 18 19 20 21 22

000
FTUS43 KGRB 262220 AAB
TAFATW
TAF AMD
KATW 262220Z 2622/2718 14011G17KT P6SM SCT012 BKN025 WS020/18030KT
      TEMPO 2622/2624 BKN012
     FM270000 21009G15KT 4SM -DZ BR SCT012 BKN020 WS020/22040KT
      TEMPO 2700/2702 2SM SHRA BR BKN012
     FM270800 24012G20KT P6SM SCT025 OVC040
     FM271500 28011G18KT P6SM VCSH BKN018=

USA.gov is the U.S. government's official web portal to all federal, state and local government web resources and services.